RCFN

Details ICAO RCFN (TTT)
Name FONGNIAN
Region Republic of China (Taiwan)
Timezone Asia/Taipei (UTC+8.0)
Plans Departing 29
Arriving 49
Stats Elevation 143 ft / 44 m (AMSL)
Location 22.754900° 121.102000°
Runways 1
Magnetic Variation 4.029° W
Sunrise 2019-05-20 21:14:27 UTC / 2019-05-21 05:14:27 Local
Sunset 2019-05-21 10:32:41 UTC / 2019-05-21 18:32:41 Local
Advertisement - Login to hide

Runways

ID Width Length Bearing (true/mag) Surface Threshold Overrun Markings Lighting
04 148 ft / 45 m 8,006 ft / 2,440 m 38.54° / 42.56° ASPHALT 0 ft / 0 m 771 ft / 235 m PREC-APP EDGE THRESHOLD MALSR
22 148 ft / 45 m 8,006 ft / 2,440 m 218.54° / 222.57° ASPHALT 0 ft / 0 m 761 ft / 232 m APP EDGE THRESHOLD REIL-OMNI

Map

Weather


0- 5 10 15 20 25 30 35+ Temperature / °C

Clouds and Precipitation
Forecast for 2019-05-20 18:00 UTC. Updated 2 hours ago

Ground ~20,000 ft ~40,000 ft Winds

METAR

Not found

TAF

TAF TAF RCFN 201100Z 2012/2112 36005KT 8000 FEW016 BKN032 TEMPO 2012/2014 36010KT 3200 TSRA FEW007 FEW010CB BKN015 BECMG 2101/2103 07007KT TEMPO 2106/2112 01005KT 4000 SHRA FEW010 BKN018

Frequencies

Tower 118.10 MHz FONGNIAN TWR
Approach 119.40 MHz KAOHSIUNG APP
Ground 121.90 MHz FONGNIAN GND
Recorded 127.00 MHz FONGNIAN ATIS
Warning: Do not use this data for real-world aviation or navigation. No guarantee of current accuracy is given.